createdAt,value
2019-05-23T00:00:38.439Z,0.00
2019-05-23T00:01:38.411Z,0.00
2019-05-23T00:02:38.412Z,0.00
2019-05-23T00:03:38.432Z,0.00
2019-05-23T00:04:38.389Z,0.00
2019-05-23T00:05:38.369Z,0.00
2019-05-23T00:06:38.378Z,0.00
2019-05-23T00:07:38.358Z,0.00
2019-05-23T00:08:38.347Z,0.00
2019-05-23T00:09:38.348Z,0.00
2019-05-23T00:10:38.394Z,0.00
2019-05-23T00:11:40.102Z,0.00
2019-05-23T00:12:38.306Z,0.00
2019-05-23T00:13:38.310Z,0.00
2019-05-23T00:14:38.273Z,0.00
2019-05-23T00:15:38.288Z,0.00
2019-05-23T00:16:38.255Z,0.00
2019-05-23T00:17:38.254Z,0.00
2019-05-23T00:18:38.253Z,0.00
2019-05-23T00:19:38.232Z,0.00
2019-05-23T00:20:38.219Z,0.00
2019-05-23T00:21:38.201Z,0.00
2019-05-23T00:22:38.187Z,0.00
2019-05-23T00:23:38.193Z,0.00
2019-05-23T00:24:38.171Z,0.00
2019-05-23T00:25:38.163Z,0.00
2019-05-23T00:26:38.161Z,0.00
2019-05-23T00:27:38.138Z,0.00
2019-05-23T00:28:38.139Z,0.00
2019-05-23T00:29:40.423Z,0.00
2019-05-23T00:30:38.112Z,0.00
2019-05-23T00:31:38.097Z,0.00
2019-05-23T00:32:38.102Z,0.00
2019-05-23T00:33:38.078Z,0.00
2019-05-23T00:34:38.085Z,0.00
2019-05-23T00:35:38.047Z,0.00
2019-05-23T00:36:38.036Z,0.00
2019-05-23T00:37:38.046Z,0.00
2019-05-23T00:38:38.066Z,0.00
2019-05-23T00:39:38.017Z,0.00
2019-05-23T00:40:38.039Z,0.00
2019-05-23T00:41:38.005Z,0.00
2019-05-23T00:42:38.007Z,0.00
2019-05-23T00:43:37.971Z,0.00
2019-05-23T00:44:37.963Z,0.00
2019-05-23T00:45:37.968Z,0.00
2019-05-23T00:46:37.953Z,0.00
2019-05-23T00:47:37.942Z,0.00
2019-05-23T00:48:37.936Z,0.00
2019-05-23T00:49:37.933Z,0.00
2019-05-23T00:50:37.919Z,0.00
2019-05-23T00:51:37.893Z,0.00
2019-05-23T00:52:37.869Z,0.00
2019-05-23T00:53:37.898Z,0.00
2019-05-23T00:54:37.880Z,0.00
2019-05-23T00:55:37.840Z,0.00
2019-05-23T00:56:37.836Z,0.00
2019-05-23T00:57:37.820Z,0.00
2019-05-23T00:58:37.809Z,0.00
2019-05-23T00:59:37.809Z,0.00
2019-05-23T01:00:37.796Z,0.00
2019-05-23T01:01:37.943Z,0.00
2019-05-23T01:02:37.766Z,0.00
2019-05-23T01:03:37.746Z,0.00
2019-05-23T01:04:37.755Z,0.00
2019-05-23T01:05:37.729Z,0.00
2019-05-23T01:06:37.738Z,0.00
2019-05-23T01:07:37.705Z,0.00
2019-05-23T01:08:37.707Z,0.00
2019-05-23T01:09:37.710Z,0.00
2019-05-23T01:10:37.674Z,0.00
2019-05-23T01:11:37.679Z,0.00
2019-05-23T01:13:47.941Z,0.00
2019-05-23T01:14:47.579Z,0.00
2019-05-23T01:15:46.567Z,0.00
2019-05-23T01:16:46.538Z,0.00
2019-05-23T01:17:46.527Z,0.00
2019-05-23T01:18:46.518Z,0.00
2019-05-23T01:19:46.518Z,0.00
2019-05-23T01:20:46.497Z,0.00
2019-05-23T01:21:46.767Z,0.00
2019-05-23T01:22:46.479Z,0.00
2019-05-23T01:23:46.483Z,0.00
2019-05-23T01:24:46.465Z,0.00
2019-05-23T01:25:46.467Z,0.00
2019-05-23T01:26:46.434Z,0.00
2019-05-23T01:27:46.429Z,0.00
2019-05-23T01:28:46.492Z,0.00
2019-05-23T01:29:49.649Z,0.00
2019-05-23T01:30:46.403Z,0.00
2019-05-23T01:31:46.402Z,0.00
2019-05-23T01:32:46.374Z,0.00
2019-05-23T01:33:46.351Z,0.00
2019-05-23T01:34:46.352Z,0.00
2019-05-23T01:35:46.351Z,0.00
2019-05-23T01:36:46.331Z,0.00
2019-05-23T01:37:46.310Z,0.00
2019-05-23T01:38:46.300Z,0.00
2019-05-23T01:39:46.312Z,0.00
2019-05-23T01:40:46.299Z,0.00
2019-05-23T01:41:46.288Z,0.00
2019-05-23T01:42:46.303Z,0.00
2019-05-23T01:43:46.248Z,0.00
2019-05-23T01:44:46.239Z,0.00
2019-05-23T01:45:46.241Z,0.00
2019-05-23T01:46:46.217Z,0.00
2019-05-23T01:47:46.227Z,0.00
2019-05-23T01:48:46.198Z,0.00
2019-05-23T01:49:46.187Z,0.00
2019-05-23T01:50:46.196Z,0.00
2019-05-23T01:51:46.165Z,0.00
2019-05-23T01:52:46.164Z,0.00
2019-05-23T01:53:46.144Z,0.00
2019-05-23T01:54:46.133Z,0.00
2019-05-23T01:55:46.133Z,0.00
2019-05-23T01:56:46.122Z,0.00
2019-05-23T01:57:46.103Z,0.00
2019-05-23T01:58:46.102Z,0.00
2019-05-23T01:59:46.081Z,0.00
2019-05-23T02:00:46.092Z,0.00
2019-05-23T02:01:46.061Z,0.00
2019-05-23T02:02:46.046Z,0.00
2019-05-23T02:03:46.033Z,0.00
2019-05-23T02:04:46.028Z,0.00
2019-05-23T02:05:46.028Z,0.00
2019-05-23T02:06:46.008Z,0.00
2019-05-23T02:07:45.998Z,0.00
2019-05-23T02:08:46.000Z,0.00
2019-05-23T02:09:45.979Z,0.00
2019-05-23T02:10:46.013Z,0.00
2019-05-23T02:11:45.952Z,0.00
2019-05-23T02:12:45.962Z,0.00
2019-05-23T02:13:45.937Z,0.00
2019-05-23T02:14:45.972Z,0.00
2019-05-23T02:15:45.906Z,0.00
2019-05-23T02:16:45.895Z,0.00
2019-05-23T02:17:45.903Z,0.00
2019-05-23T02:18:45.875Z,0.00
2019-05-23T02:19:45.875Z,0.00
2019-05-23T02:20:45.856Z,0.00
2019-05-23T02:21:45.846Z,0.00
2019-05-23T02:22:45.832Z,0.00
2019-05-23T02:23:45.833Z,0.00
2019-05-23T02:24:45.815Z,0.00
2019-05-23T02:25:45.807Z,0.00
2019-05-23T02:26:45.789Z,0.00
2019-05-23T02:27:45.772Z,0.00
2019-05-23T02:28:45.772Z,0.00
2019-05-23T02:29:45.768Z,0.00
2019-05-23T02:30:45.752Z,0.00
2019-05-23T02:31:45.756Z,0.00
2019-05-23T02:32:45.720Z,0.00
2019-05-23T02:33:45.729Z,0.00
2019-05-23T02:34:45.708Z,0.00
2019-05-23T02:35:45.689Z,0.00
2019-05-23T02:36:45.690Z,0.00
2019-05-23T02:37:45.667Z,0.00
2019-05-23T02:38:45.668Z,0.00
2019-05-23T02:39:45.645Z,0.00
2019-05-23T02:40:45.648Z,0.00
2019-05-23T02:41:45.626Z,0.00
2019-05-23T02:42:45.619Z,0.00
2019-05-23T02:43:45.611Z,0.00
2019-05-23T02:44:45.607Z,0.00
2019-05-23T02:45:45.585Z,0.00
2019-05-23T02:46:45.587Z,0.00
2019-05-23T02:47:45.572Z,0.00
2019-05-23T02:48:45.544Z,0.00
2019-05-23T02:49:45.547Z,0.00
2019-05-23T02:50:45.523Z,0.00
2019-05-23T02:51:45.572Z,0.00
2019-05-23T02:52:45.501Z,0.00
2019-05-23T02:53:45.503Z,0.00
2019-05-23T02:54:45.501Z,0.00
2019-05-23T02:55:45.474Z,0.00
2019-05-23T02:56:45.496Z,0.00
2019-05-23T02:57:45.470Z,0.00
2019-05-23T02:58:45.459Z,0.00
2019-05-23T02:59:45.541Z,0.00
2019-05-23T03:00:54.249Z,0.00
2019-05-23T03:01:46.417Z,0.00
2019-05-23T03:02:45.399Z,0.00
2019-05-23T03:03:45.389Z,0.00
2019-05-23T03:04:45.379Z,0.00
2019-05-23T03:05:45.378Z,0.00
2019-05-23T03:06:45.366Z,0.00
2019-05-23T03:07:45.358Z,0.00
2019-05-23T03:08:45.354Z,0.00
2019-05-23T03:09:45.330Z,0.00
2019-05-23T03:10:45.316Z,0.00
2019-05-23T03:11:45.307Z,0.00
2019-05-23T03:12:45.305Z,0.00
2019-05-23T03:13:45.284Z,0.00
2019-05-23T03:14:45.287Z,0.00
2019-05-23T03:15:45.267Z,0.00
2019-05-23T03:16:45.251Z,0.00
2019-05-23T03:17:45.260Z,0.00
2019-05-23T03:18:45.247Z,0.00
2019-05-23T03:19:45.241Z,0.00
2019-05-23T03:20:45.209Z,0.00
2019-05-23T03:21:45.199Z,0.00
2019-05-23T03:22:45.203Z,0.00
2019-05-23T03:23:45.180Z,0.00
2019-05-23T03:24:45.168Z,0.00
2019-05-23T03:25:45.158Z,0.00
2019-05-23T03:26:45.151Z,0.00
2019-05-23T03:27:45.158Z,0.00
2019-05-23T03:28:45.118Z,0.00
2019-05-23T03:29:45.116Z,5.62
2019-05-23T03:30:45.124Z,5.62
2019-05-23T03:31:45.120Z,5.62
2019-05-23T03:32:45.076Z,5.62
2019-05-23T03:33:45.076Z,5.62
2019-05-23T03:34:45.122Z,5.62
2019-05-23T03:35:45.066Z,5.62
2019-05-23T03:36:45.047Z,5.62
2019-05-23T03:37:45.135Z,5.62
2019-05-23T03:38:45.015Z,11.25
2019-05-23T03:39:45.007Z,11.25
2019-05-23T03:40:44.992Z,11.25
2019-05-23T03:41:44.985Z,11.25
2019-05-23T03:42:44.983Z,11.25
2019-05-23T03:43:44.970Z,11.25
2019-05-23T03:44:44.957Z,16.88
2019-05-23T03:45:44.931Z,16.88
2019-05-23T03:46:44.940Z,16.88
2019-05-23T03:47:44.918Z,16.88
2019-05-23T03:48:44.918Z,16.88
2019-05-23T03:49:44.900Z,22.50
2019-05-23T03:50:44.889Z,22.50
2019-05-23T03:51:44.881Z,22.50
2019-05-23T03:52:44.865Z,22.50
2019-05-23T03:53:44.866Z,28.12
2019-05-23T03:54:44.848Z,28.12
2019-05-23T03:55:44.830Z,28.12
2019-05-23T03:56:44.826Z,28.12
2019-05-23T03:57:44.807Z,33.75
2019-05-23T03:58:44.827Z,33.75
2019-05-23T03:59:44.795Z,33.75
2019-05-23T04:00:44.785Z,33.75
2019-05-23T04:01:48.311Z,39.38
2019-05-23T04:02:44.764Z,39.38
2019-05-23T04:03:44.775Z,39.38
2019-05-23T04:04:44.743Z,45.00
2019-05-23T04:05:44.722Z,45.00
2019-05-23T04:06:44.733Z,45.00
2019-05-23T04:07:44.718Z,45.00
2019-05-23T04:08:44.691Z,50.62
2019-05-23T04:09:44.702Z,50.62
2019-05-23T04:10:45.281Z,50.62
2019-05-23T04:11:44.698Z,56.25
2019-05-23T04:12:44.683Z,56.25
2019-05-23T04:13:44.639Z,56.25
2019-05-23T04:14:44.647Z,61.88
2019-05-23T04:15:44.632Z,61.88
2019-05-23T04:16:44.611Z,61.88
2019-05-23T04:17:44.607Z,67.50
2019-05-23T04:18:44.586Z,67.50
2019-05-23T04:19:44.608Z,73.12
2019-05-23T04:20:44.566Z,73.12
2019-05-23T04:21:44.557Z,73.12
2019-05-23T04:22:44.557Z,78.75
2019-05-23T04:23:44.535Z,78.75
2019-05-23T04:24:44.536Z,78.75
2019-05-23T04:25:44.514Z,84.38
2019-05-23T04:26:44.528Z,84.38
2019-05-23T04:27:44.495Z,90.00
2019-05-23T04:28:44.483Z,90.00
2019-05-23T04:29:44.476Z,90.00
2019-05-23T04:30:44.471Z,95.62
2019-05-23T04:31:44.452Z,95.62
2019-05-23T04:32:44.452Z,118.12
2019-05-23T04:33:44.432Z,151.88
2019-05-23T04:34:44.440Z,196.88
2019-05-23T04:35:44.430Z,230.62
2019-05-23T04:36:44.396Z,202.50
2019-05-23T04:37:44.379Z,247.50
2019-05-23T04:38:44.388Z,253.12
2019-05-23T04:39:44.370Z,253.12
2019-05-23T04:40:44.349Z,241.88
2019-05-23T04:41:44.339Z,208.12
2019-05-23T04:42:44.337Z,213.75
2019-05-23T04:43:44.345Z,275.62
2019-05-23T04:44:44.898Z,315.00
2019-05-23T04:45:44.316Z,343.12
2019-05-23T04:46:44.299Z,331.88
2019-05-23T04:47:44.294Z,253.12
2019-05-23T04:48:44.265Z,191.25
2019-05-23T04:49:44.264Z,196.88
2019-05-23T04:50:44.254Z,191.25
2019-05-23T04:51:44.235Z,180.00
2019-05-23T04:52:44.223Z,180.00
2019-05-23T04:53:44.224Z,185.62
2019-05-23T04:54:44.214Z,185.62
2019-05-23T04:55:44.223Z,185.62
2019-05-23T04:56:44.184Z,191.25
2019-05-23T04:57:44.175Z,191.25
2019-05-23T04:58:44.185Z,202.50
2019-05-23T04:59:44.163Z,213.75
2019-05-23T05:00:44.153Z,213.75
2019-05-23T05:01:44.136Z,202.50
2019-05-23T05:02:44.131Z,208.12
2019-05-23T05:03:44.110Z,213.75
2019-05-23T05:04:44.103Z,213.75
2019-05-23T05:05:44.098Z,225.00
2019-05-23T05:06:44.079Z,236.25
2019-05-23T05:07:44.078Z,225.00
2019-05-23T05:08:44.050Z,236.25
2019-05-23T05:09:44.057Z,264.38
2019-05-23T05:10:44.045Z,253.12
2019-05-23T05:11:44.015Z,241.88
2019-05-23T05:12:44.016Z,270.00
2019-05-23T05:13:43.995Z,405.00
2019-05-23T05:14:43.994Z,416.25
2019-05-23T05:15:43.995Z,444.38
2019-05-23T05:16:43.973Z,483.75
2019-05-23T05:17:43.980Z,523.12
2019-05-23T05:18:43.978Z,568.12
2019-05-23T05:19:43.957Z,613.12
2019-05-23T05:20:43.950Z,658.12
2019-05-23T05:21:43.913Z,618.75
2019-05-23T05:22:43.921Z,601.88
2019-05-23T05:23:43.891Z,708.75
2019-05-23T05:24:43.881Z,1389.38
2019-05-23T05:25:43.870Z,1693.12
2019-05-23T05:26:43.880Z,1040.62
2019-05-23T05:27:43.852Z,855.00
2019-05-23T05:28:43.911Z,731.25
2019-05-23T05:29:43.829Z,472.50
2019-05-23T05:30:43.849Z,551.25
2019-05-23T05:31:44.620Z,613.12
2019-05-23T05:32:45.553Z,523.12
2019-05-23T05:33:43.788Z,551.25
2019-05-23T05:34:43.776Z,506.25
2019-05-23T05:35:43.795Z,472.50
2019-05-23T05:36:43.758Z,500.62
2019-05-23T05:37:43.780Z,635.62
2019-05-23T05:38:43.743Z,776.25
2019-05-23T05:39:43.716Z,748.12
2019-05-23T05:40:43.719Z,579.38
2019-05-23T05:41:43.694Z,618.75
2019-05-23T05:42:43.685Z,658.12
2019-05-23T05:43:43.704Z,523.12
2019-05-23T05:44:43.685Z,562.50
2019-05-23T05:45:43.647Z,658.12
2019-05-23T05:46:43.665Z,1018.12
2019-05-23T05:47:43.658Z,990.00
2019-05-23T05:48:43.624Z,978.75
2019-05-23T05:49:43.623Z,1586.25
2019-05-23T05:50:43.607Z,1524.38
2019-05-23T05:51:43.592Z,1766.25
2019-05-23T05:52:43.603Z,2373.75
2019-05-23T05:53:43.581Z,2570.62
2019-05-23T05:54:43.550Z,2683.12
2019-05-23T05:55:43.551Z,2705.62
2019-05-23T05:56:43.534Z,2587.50
2019-05-23T05:57:43.602Z,2542.50
2019-05-23T05:58:43.526Z,2480.62
2019-05-23T05:59:43.501Z,2677.50
2019-05-23T06:00:43.523Z,2705.62
2019-05-23T06:01:43.479Z,2818.12
2019-05-23T06:03:00.787Z,2891.25
2019-05-23T06:03:44.459Z,2806.88
2019-05-23T06:04:43.453Z,2660.62
2019-05-23T06:05:43.447Z,2503.12
2019-05-23T06:06:43.422Z,2463.75
2019-05-23T06:07:43.417Z,2081.25
2019-05-23T06:08:43.396Z,1333.12
2019-05-23T06:09:43.386Z,675.00
2019-05-23T06:10:44.160Z,618.75
2019-05-23T06:11:43.366Z,680.62
2019-05-23T06:12:43.356Z,579.38
2019-05-23T06:13:43.345Z,568.12
2019-05-23T06:14:46.534Z,630.00
2019-05-23T06:15:43.339Z,725.62
2019-05-23T06:16:43.318Z,556.88
2019-05-23T06:17:43.331Z,573.75
2019-05-23T06:18:43.296Z,579.38
2019-05-23T06:19:43.286Z,601.88
2019-05-23T06:20:43.296Z,635.62
2019-05-23T06:21:43.273Z,714.38
2019-05-23T06:22:43.253Z,725.62
2019-05-23T06:23:43.243Z,894.38
2019-05-23T06:24:49.376Z,2041.88
2019-05-23T06:25:44.231Z,2773.12
2019-05-23T06:26:43.211Z,2013.75
2019-05-23T06:27:43.203Z,1659.38
2019-05-23T06:28:43.191Z,2345.62
2019-05-23T06:29:43.197Z,2722.50
2019-05-23T06:30:43.670Z,2615.62
2019-05-23T06:31:43.201Z,3195.00
2019-05-23T06:32:43.173Z,3380.62
2019-05-23T06:33:43.130Z,3318.75
2019-05-23T06:34:43.132Z,3318.75
2019-05-23T06:35:43.128Z,3330.00
2019-05-23T06:36:43.151Z,3493.12
2019-05-23T06:37:43.128Z,1884.38
2019-05-23T06:38:43.089Z,1440.00
2019-05-23T06:39:43.074Z,1192.50
2019-05-23T06:40:43.069Z,1125.00
2019-05-23T06:41:43.049Z,1181.25
2019-05-23T06:42:43.038Z,1186.88
2019-05-23T06:43:43.053Z,1513.12
2019-05-23T06:44:43.021Z,3853.12
2019-05-23T06:45:43.017Z,3943.12
2019-05-23T06:46:43.000Z,3881.25
2019-05-23T06:47:43.117Z,4005.00
2019-05-23T06:48:45.715Z,3948.75
2019-05-23T06:49:42.968Z,3847.50
2019-05-23T06:50:42.958Z,3853.12
2019-05-23T06:51:42.947Z,3982.50
2019-05-23T06:52:42.984Z,4016.25
2019-05-23T06:53:42.941Z,3993.75
2019-05-23T06:54:42.930Z,4061.25
2019-05-23T06:55:42.898Z,4027.50
2019-05-23T06:56:42.895Z,4061.25
2019-05-23T06:57:42.898Z,4061.25
2019-05-23T06:58:42.883Z,4072.50
2019-05-23T06:59:42.864Z,4050.00
2019-05-23T07:00:42.933Z,4213.12
2019-05-23T07:01:42.844Z,4021.88
2019-05-23T07:02:42.844Z,3960.00
2019-05-23T07:03:43.808Z,3931.88
2019-05-23T07:04:42.806Z,4117.50
2019-05-23T07:05:42.794Z,4241.25
2019-05-23T07:06:42.806Z,4308.75
2019-05-23T07:07:42.813Z,4179.38
2019-05-23T07:08:42.764Z,4066.88
2019-05-23T07:09:42.763Z,3999.38
2019-05-23T07:10:42.843Z,3864.38
2019-05-23T07:11:42.733Z,3768.75
2019-05-23T07:12:45.763Z,3656.25
2019-05-23T07:13:42.711Z,3931.88
2019-05-23T07:14:42.714Z,4078.12
2019-05-23T07:15:42.704Z,4201.88
2019-05-23T07:16:42.692Z,4207.50
2019-05-23T07:17:42.703Z,4111.88
2019-05-23T07:18:42.662Z,4140.00
2019-05-23T07:19:42.671Z,3926.25
2019-05-23T07:20:42.647Z,3898.12
2019-05-23T07:21:42.631Z,4117.50
2019-05-23T07:22:42.658Z,4123.12
2019-05-23T07:23:42.611Z,4342.50
2019-05-23T07:24:56.829Z,4505.62
2019-05-23T07:25:43.590Z,4651.88
2019-05-23T07:26:42.585Z,4533.75
2019-05-23T07:27:42.615Z,4010.62
2019-05-23T07:28:43.360Z,3819.38
2019-05-23T07:29:42.610Z,3858.75
2019-05-23T07:30:43.866Z,4021.88
2019-05-23T07:31:42.529Z,4072.50
2019-05-23T07:32:42.530Z,3948.75
2019-05-23T07:34:00.420Z,3729.38
2019-05-23T07:34:43.500Z,3847.50
2019-05-23T07:35:42.503Z,3830.62
2019-05-23T07:36:42.586Z,3954.38
2019-05-23T07:37:42.469Z,3740.62
2019-05-23T07:38:42.470Z,3931.88
2019-05-23T07:39:42.459Z,3909.38
2019-05-23T07:40:42.440Z,3470.62
2019-05-23T07:41:42.950Z,3487.50
2019-05-23T07:42:42.419Z,3813.75
2019-05-23T07:43:42.482Z,3830.62
2019-05-23T07:44:48.377Z,3886.88
2019-05-23T07:45:43.386Z,4016.25
2019-05-23T07:46:42.378Z,3931.88
2019-05-23T07:47:42.370Z,3729.38
2019-05-23T07:48:42.375Z,3971.25
2019-05-23T07:49:42.366Z,3712.50
2019-05-23T07:50:42.337Z,3420.00
2019-05-23T07:51:42.330Z,3678.75
2019-05-23T07:52:42.336Z,4297.50
2019-05-23T07:53:43.990Z,4213.12
2019-05-23T07:54:42.304Z,4021.88
2019-05-23T07:55:42.311Z,3965.62
2019-05-23T07:56:42.286Z,4173.75
2019-05-23T07:57:42.277Z,4100.62
2019-05-23T07:58:42.272Z,4044.38
2019-05-23T07:59:42.247Z,4061.25
2019-05-23T08:00:42.244Z,4190.62
2019-05-23T08:01:42.235Z,4303.12
2019-05-23T08:02:42.219Z,4128.75
2019-05-23T08:03:42.204Z,3825.00
2019-05-23T08:04:42.195Z,3605.62
2019-05-23T08:05:42.203Z,3611.25
2019-05-23T08:06:42.196Z,3684.38
2019-05-23T08:07:42.252Z,3780.00
2019-05-23T08:08:42.172Z,3538.12
2019-05-23T08:09:42.153Z,3886.88
2019-05-23T08:10:42.153Z,4027.50
2019-05-23T08:11:42.208Z,4111.88
2019-05-23T08:12:42.140Z,4027.50
2019-05-23T08:13:42.106Z,3915.00
2019-05-23T08:14:42.103Z,4201.88
2019-05-23T08:15:42.083Z,4111.88
2019-05-23T08:16:42.106Z,3954.38
2019-05-23T08:17:42.072Z,4016.25
2019-05-23T08:18:42.052Z,3088.12
2019-05-23T08:19:49.646Z,3256.88
2019-05-23T08:20:43.036Z,4038.75
2019-05-23T08:21:42.071Z,4156.88
2019-05-23T08:22:42.272Z,4145.62
2019-05-23T08:23:42.062Z,4263.75
2019-05-23T08:24:42.000Z,4230.00
2019-05-23T08:25:42.018Z,4061.25
2019-05-23T08:26:41.991Z,3898.12
2019-05-23T08:27:42.000Z,3813.75
2019-05-23T08:29:00.984Z,3864.38
2019-05-23T08:29:42.940Z,4083.75
2019-05-23T08:30:41.981Z,4100.62
2019-05-23T08:31:41.944Z,4134.38
2019-05-23T08:32:41.930Z,4151.25
2019-05-23T08:33:41.901Z,3915.00
2019-05-23T08:34:43.054Z,3993.75
2019-05-23T08:35:41.884Z,3982.50
2019-05-23T08:36:41.899Z,4404.38
2019-05-23T08:37:41.869Z,4860.00
2019-05-23T08:38:41.862Z,4629.38
2019-05-23T08:39:41.850Z,4899.38
2019-05-23T08:40:41.839Z,4995.00
2019-05-23T08:41:41.841Z,4831.88
2019-05-23T08:42:41.824Z,4044.38
2019-05-23T08:43:41.811Z,4387.50
2019-05-23T08:44:41.788Z,4561.88
2019-05-23T08:45:41.797Z,4601.25
2019-05-23T08:46:41.775Z,4466.25
2019-05-23T08:47:41.767Z,4545.00
2019-05-23T08:48:41.767Z,4488.75
2019-05-23T08:49:41.748Z,4320.00
2019-05-23T08:50:41.739Z,4241.25
2019-05-23T08:51:41.727Z,4269.38
2019-05-23T08:52:41.717Z,3954.38
2019-05-23T08:53:41.730Z,4089.38
2019-05-23T08:54:41.697Z,4033.12
2019-05-23T08:55:41.695Z,3954.38
2019-05-23T08:56:41.666Z,3763.12
2019-05-23T08:57:41.677Z,3763.12
2019-05-23T08:58:41.662Z,3931.88
2019-05-23T08:59:41.646Z,3470.62
2019-05-23T09:00:41.638Z,3751.88
2019-05-23T09:01:41.631Z,3093.75
2019-05-23T09:02:41.626Z,3650.62
2019-05-23T09:03:41.628Z,3898.12
2019-05-23T09:05:01.221Z,3870.00
2019-05-23T09:05:43.281Z,3836.25
2019-05-23T09:06:41.575Z,3622.50
2019-05-23T09:07:41.566Z,3493.12
2019-05-23T09:08:42.387Z,3583.12
2019-05-23T09:09:41.564Z,3465.00
2019-05-23T09:10:41.542Z,3521.25
2019-05-23T09:11:41.524Z,3256.88
2019-05-23T09:12:41.524Z,3251.25
2019-05-23T09:13:41.525Z,3397.50
2019-05-23T09:14:41.514Z,3386.25
2019-05-23T09:15:41.484Z,3403.12
2019-05-23T09:16:41.501Z,3476.25
2019-05-23T09:17:52.236Z,3088.12
2019-05-23T09:18:42.465Z,3026.25
2019-05-23T09:19:41.444Z,1985.62
2019-05-23T09:20:41.433Z,978.75
2019-05-23T09:21:41.453Z,798.75
2019-05-23T09:22:41.422Z,731.25
2019-05-23T09:23:41.404Z,742.50
2019-05-23T09:24:42.063Z,708.75
2019-05-23T09:25:42.057Z,731.25
2019-05-23T09:26:41.382Z,652.50
2019-05-23T09:27:41.376Z,714.38
2019-05-23T09:28:41.372Z,697.50
2019-05-23T09:29:41.341Z,669.38
2019-05-23T09:30:41.352Z,646.88
2019-05-23T09:31:41.326Z,624.38
2019-05-23T09:32:41.311Z,613.12
2019-05-23T09:33:41.301Z,590.62
2019-05-23T09:34:41.286Z,573.75
2019-05-23T09:35:41.290Z,568.12
2019-05-23T09:36:41.271Z,551.25
2019-05-23T09:37:41.272Z,545.62
2019-05-23T09:38:41.242Z,534.38
2019-05-23T09:39:41.249Z,534.38
2019-05-23T09:40:41.231Z,534.38
2019-05-23T09:41:41.215Z,534.38
2019-05-23T09:42:41.210Z,528.75
2019-05-23T09:43:41.198Z,506.25
2019-05-23T09:44:41.188Z,517.50
2019-05-23T09:45:41.177Z,511.88
2019-05-23T09:46:41.168Z,517.50
2019-05-23T09:47:41.148Z,528.75
2019-05-23T09:48:41.140Z,528.75
2019-05-23T09:49:41.227Z,511.88
2019-05-23T09:50:41.116Z,495.00
2019-05-23T09:51:41.145Z,495.00
2019-05-23T09:52:41.095Z,495.00
2019-05-23T09:53:46.730Z,478.12
2019-05-23T09:54:42.100Z,455.62
2019-05-23T09:55:41.090Z,450.00
2019-05-23T09:56:41.065Z,421.88
2019-05-23T09:57:41.064Z,489.38
2019-05-23T09:58:41.028Z,495.00
2019-05-23T09:59:41.025Z,506.25
2019-05-23T10:00:41.005Z,511.88
2019-05-23T10:01:41.008Z,523.12
2019-05-23T10:02:41.019Z,517.50
2019-05-23T10:03:40.981Z,410.62
2019-05-23T10:04:40.990Z,483.75
2019-05-23T10:05:43.848Z,416.25
2019-05-23T10:06:40.953Z,483.75
2019-05-23T10:07:40.996Z,517.50
2019-05-23T10:08:40.934Z,466.88
2019-05-23T10:09:40.952Z,450.00
2019-05-23T10:10:40.922Z,444.38
2019-05-23T10:11:40.892Z,506.25
2019-05-23T10:12:40.950Z,511.88
2019-05-23T10:13:40.881Z,466.88
2019-05-23T10:14:40.863Z,466.88
2019-05-23T10:15:40.851Z,450.00
2019-05-23T10:16:40.840Z,433.12
2019-05-23T10:17:40.843Z,410.62
2019-05-23T10:18:40.821Z,348.75
2019-05-23T10:19:40.830Z,388.12
2019-05-23T10:20:40.832Z,427.50
2019-05-23T10:21:40.801Z,472.50
2019-05-23T10:22:40.779Z,455.62
2019-05-23T10:23:40.762Z,489.38
2019-05-23T10:24:40.769Z,500.62
2019-05-23T10:25:40.752Z,466.88
2019-05-23T10:26:40.729Z,466.88
2019-05-23T10:27:40.719Z,455.62
2019-05-23T10:28:40.719Z,427.50
2019-05-23T10:29:40.718Z,416.25
2019-05-23T10:30:40.693Z,393.75
2019-05-23T10:31:40.687Z,405.00
2019-05-23T10:32:40.688Z,393.75
2019-05-23T10:33:40.667Z,382.50
2019-05-23T10:34:40.673Z,376.88
2019-05-23T10:35:56.938Z,388.12
2019-05-23T10:36:41.625Z,393.75
2019-05-23T10:37:40.646Z,371.25
2019-05-23T10:39:49.556Z,433.12
2019-05-23T10:40:49.510Z,427.50
2019-05-23T10:41:49.497Z,427.50
2019-05-23T10:42:49.506Z,433.12
2019-05-23T10:43:49.499Z,427.50
2019-05-23T10:44:49.463Z,416.25
2019-05-23T10:45:49.464Z,405.00
2019-05-23T10:46:49.439Z,399.38
2019-05-23T10:47:49.426Z,388.12
2019-05-23T10:48:49.436Z,365.62
2019-05-23T10:49:49.416Z,354.38
2019-05-23T10:50:49.405Z,354.38
2019-05-23T10:51:49.418Z,354.38
2019-05-23T10:52:49.409Z,360.00
2019-05-23T10:53:49.374Z,365.62
2019-05-23T10:54:49.354Z,354.38
2019-05-23T10:55:49.357Z,348.75
2019-05-23T10:56:49.337Z,331.88
2019-05-23T10:57:49.323Z,343.12
2019-05-23T10:58:49.343Z,354.38
2019-05-23T10:59:49.303Z,371.25
2019-05-23T11:00:49.293Z,382.50
2019-05-23T11:01:49.286Z,393.75
2019-05-23T11:02:49.271Z,388.12
2019-05-23T11:03:49.283Z,371.25
2019-05-23T11:04:49.282Z,360.00
2019-05-23T11:05:49.245Z,360.00
2019-05-23T11:06:49.271Z,354.38
2019-05-23T11:07:49.239Z,348.75
2019-05-23T11:08:49.255Z,326.25
2019-05-23T11:09:49.259Z,315.00
2019-05-23T11:10:49.210Z,320.62
2019-05-23T11:11:49.191Z,337.50
2019-05-23T11:12:49.169Z,348.75
2019-05-23T11:13:49.180Z,354.38
2019-05-23T11:14:49.165Z,354.38
2019-05-23T11:15:49.149Z,348.75
2019-05-23T11:16:49.128Z,343.12
2019-05-23T11:17:53.084Z,337.50
2019-05-23T11:18:49.168Z,320.62
2019-05-23T11:19:49.100Z,303.75
2019-05-23T11:20:49.215Z,303.75
2019-05-23T11:21:49.077Z,298.12
2019-05-23T11:22:49.067Z,286.88
2019-05-23T11:23:49.095Z,281.25
2019-05-23T11:24:49.062Z,275.62
2019-05-23T11:25:49.037Z,275.62
2019-05-23T11:26:49.033Z,275.62
2019-05-23T11:27:49.064Z,270.00
2019-05-23T11:28:48.999Z,264.38
2019-05-23T11:29:48.995Z,270.00
2019-05-23T11:30:49.026Z,264.38
2019-05-23T11:31:48.977Z,264.38
2019-05-23T11:32:48.969Z,258.75
2019-05-23T11:33:48.970Z,258.75
2019-05-23T11:34:49.093Z,264.38
2019-05-23T11:35:48.933Z,258.75
2019-05-23T11:36:48.955Z,264.38
2019-05-23T11:37:48.904Z,264.38
2019-05-23T11:38:48.903Z,264.38
2019-05-23T11:39:51.145Z,264.38
2019-05-23T11:40:48.872Z,258.75
2019-05-23T11:41:48.873Z,258.75
2019-05-23T11:42:52.508Z,247.50
2019-05-23T11:43:48.854Z,247.50
2019-05-23T11:44:48.837Z,247.50
2019-05-23T11:45:48.822Z,253.12
2019-05-23T11:46:48.824Z,264.38
2019-05-23T11:47:48.822Z,264.38
2019-05-23T11:48:48.793Z,275.62
2019-05-23T11:49:48.871Z,281.25
2019-05-23T11:50:48.770Z,292.50
2019-05-23T11:51:48.773Z,286.88
2019-05-23T11:52:48.749Z,281.25
2019-05-23T11:54:05.869Z,281.25
2019-05-23T11:54:49.729Z,281.25
2019-05-23T11:55:53.272Z,275.62
2019-05-23T11:56:49.698Z,270.00
2019-05-23T11:57:48.688Z,264.38
2019-05-23T11:58:48.692Z,258.75
2019-05-23T11:59:48.677Z,264.38
2019-05-23T12:00:48.704Z,258.75
2019-05-23T12:01:48.657Z,253.12
2019-05-23T12:02:48.646Z,247.50
2019-05-23T12:03:48.630Z,247.50
2019-05-23T12:04:48.657Z,247.50
2019-05-23T12:05:48.631Z,241.88
2019-05-23T12:06:55.334Z,241.88
2019-05-23T12:07:49.588Z,236.25
2019-05-23T12:08:48.656Z,247.50
2019-05-23T12:09:48.588Z,253.12
2019-05-23T12:10:48.579Z,253.12
2019-05-23T12:11:48.568Z,253.12
2019-05-23T12:12:48.549Z,253.12
2019-05-23T12:13:48.560Z,253.12
2019-05-23T12:14:48.535Z,253.12
2019-05-23T12:15:48.506Z,253.12
2019-05-23T12:16:48.526Z,247.50
2019-05-23T12:17:48.484Z,247.50
2019-05-23T12:18:48.483Z,247.50
2019-05-23T12:19:48.496Z,241.88
2019-05-23T12:20:48.492Z,241.88
2019-05-23T12:21:48.463Z,236.25
2019-05-23T12:22:48.463Z,230.62
2019-05-23T12:23:48.474Z,225.00
2019-05-23T12:24:48.464Z,225.00
2019-05-23T12:25:48.421Z,219.38
2019-05-23T12:26:48.425Z,219.38
2019-05-23T12:27:48.740Z,213.75
2019-05-23T12:28:48.375Z,213.75
2019-05-23T12:29:48.380Z,213.75
2019-05-23T12:30:48.349Z,208.12
2019-05-23T12:31:49.778Z,202.50
2019-05-23T12:32:48.349Z,196.88
2019-05-23T12:33:48.342Z,196.88
2019-05-23T12:35:08.450Z,196.88
2019-05-23T12:35:49.327Z,196.88
2019-05-23T12:36:48.290Z,196.88
2019-05-23T12:37:48.278Z,202.50
2019-05-23T12:38:48.269Z,202.50
2019-05-23T12:39:48.299Z,196.88